Black Springs, Nevada
Current Conditions -  °F | °C
As of 11:55 AM on Wednesday 17 Dec 2014 (Local Time) from KRTS Reporting Station
Broken Clouds Broken Clouds  
Wind Chill: 34°   Ceiling: 4600
Heat Index: 39°   Visibility: 10mi
Dew Point: 28°   Wind: 7mph
Humidity: 65%   Direction: 310°NW
Pressure: 29.94"   Gusts: NA
Location:  39.7378°N, 119.889°W
Report Text: KRTS 171955Z AUTO 31006KT 10SM FEW015 SCT038 BKN046 04/M02 A2994 RMK AO2
Loading
Personal Weather Stations






























Interactive Weather Map New forecast layout! Learn more

10-Day Weather Forecast

Advertisements
Track Severe Weather on mobile